Airfield :
LOGIN :

Register | Disclaimer

   EN    FR    IT 

 










Legend :    VFR   Marginal VFR   IFR   Intensive IFR   Very Intensive IFR
Visi :
Ceiling :
>= 8 km
>= 3000ft
5 to 8 km
1000 to 3000 ft
1500m to 5 km
500 to 1000 ft
800 to 1500m
200 to 500 ft
< 800m
< 200 ft
Symbols :   Thunderstorms  Fog  Heavy snow  Heavy precipitations  Wind > 20 kt
SIGMETs :     Misc.  Thunderstorms  Icing  Turbulence  Mountain Waves  Volcanic Ashes







- Airport Elevation : 308 ft
- IATA code : POZ


EPPO - Poznan-Lawica

CURRENT METAR :
  • 251500Z 29010KT 9999 FEW045CB SCT045 23/09 Q1017

EXPIRED METARs :
  • 251430Z 27013KT 9999 SCT044 22/10 Q1018 R10/290095
  • 251400Z 29014KT 9999 SCT040 21/10 Q1018 R10/290095
  • 251330Z 28014KT 9999 SCT040 21/10 Q1018 R10/290095
  • 251300Z 28013KT 9999 SCT034 20/10 Q1018 R10/290095
  • 251230Z 24011KT 230V290 9999 SCT030 20/11 Q1018 R10/290095

TAF TAF EPPO
Valid from the 25 at 12:00 until the 26 at 12:00 UTC


251130Z 2512/2612 27010KT 9999 BKN023
TEMPO 2514/2521 SHRA BKN020CB
PROB40
TEMPO 2514/2519 VRB15G25KT 4000 TSRA BKN013CB
PROB30
TEMPO 2522/2606 4000 BR BKN003
TEMPO 2606/2608 BKN010
TEMPO 2608/2612 -SHRA BKN020CB
No reported NOTAMs for that airfield.
1 SIGMET reported for the Warszawa FIR (EPWW) :
 
Embedded thunderstorms
EPWW SIGMET 2 VALID 251345/251605 EPWA
EPWW WARSAW FIR EMBD TS OBS WI N5350 E01820 - N5240 E02050 - N5220 E02150 - N5040 E02220 - N5030 E01920 - N5300 E01630 - N5350 E01820 TOP FL340 MOV SE NC=



MET'MAP, your aeronautical weather chart ! - Copyright ORBIFLY December 2007 - Disclaimer

ORBIFLY MET'MAP TEAM :

Programming & Development : Alexandra Zaïnal
Concept & Development : Baudouin d'Aumeries
Co-Development & Prog : Marc-Olivier Méhu
Technical & hardware support : Manuel Goepfert

Contact : metmap@orbifly.com




SOURCES & CREDITS :

   NOAA